Time;durP1;ratioP1;P1;durP2;ratioP2;P2;SDS_P1;SDS_P2;PMS_P1;PMS_P2;Temp;Humidity;BMP_temperature;BMP_pressure;BME280_temperature;BME280_humidity;BME280_pressure;Samples;Min_cycle;Max_cycle;Signal;HPM_P1;HPM_P2
2023/06/30 00:00:27;;;;;;;20.80;3.35;;;;;;;15.19;100.00;100149.19;4945208;28;20038;-82
2023/06/30 00:02:55;;;;;;;23.50;4.43;;;;;;;15.16;100.00;100146.03;4960630;28;20030;-81
2023/06/30 00:05:21;;;;;;;26.10;4.07;;;;;;;15.11;100.00;100146.59;4960956;28;20038;-82
2023/06/30 00:07:47;;;;;;;20.70;3.53;;;;;;;15.07;100.00;100143.47;4985834;28;20045;-81
2023/06/30 00:10:13;;;;;;;18.52;3.85;;;;;;;15.04;100.00;100141.16;4950363;28;20039;-82
2023/06/30 00:12:39;;;;;;;15.55;3.10;;;;;;;15.02;100.00;100137.84;4959673;28;20031;-82
2023/06/30 00:15:05;;;;;;;17.75;3.72;;;;;;;14.99;100.00;100136.38;4954291;28;20038;-82
2023/06/30 00:17:31;;;;;;;18.30;3.08;;;;;;;14.98;100.00;100133.91;4957595;28;20045;-84
2023/06/30 00:19:59;;;;;;;13.00;3.28;;;;;;;14.93;100.00;100129.13;4958730;28;20026;-83
2023/06/30 00:22:25;;;;;;;15.07;3.25;;;;;;;14.94;100.00;100129.97;4950182;28;20042;-82
2023/06/30 00:24:55;;;;;;;20.65;3.28;;;;;;;14.96;100.00;100133.25;4978855;28;20038;-82
2023/06/30 00:27:25;;;;;;;16.60;3.33;;;;;;;14.93;100.00;100131.78;4980816;28;20065;-82
2023/06/30 00:29:51;;;;;;;16.38;3.38;;;;;;;14.86;100.00;100126.34;4957388;28;20031;-81
2023/06/30 00:32:18;;;;;;;17.55;3.00;;;;;;;14.86;100.00;100121.03;4964962;28;20065;-81
2023/06/30 00:34:45;;;;;;;14.38;2.92;;;;;;;14.82;100.00;100119.75;4976625;28;20049;-82
2023/06/30 00:37:11;;;;;;;19.17;2.90;;;;;;;14.80;100.00;100119.09;4957718;28;20046;-82
2023/06/30 00:39:37;;;;;;;15.00;2.75;;;;;;;14.79;100.00;100117.44;4960282;28;20166;-85
2023/06/30 00:42:04;;;;;;;11.55;2.38;;;;;;;14.73;100.00;100112.81;4982037;28;20034;-81
2023/06/30 00:44:30;;;;;;;12.38;2.03;;;;;;;14.66;100.00;100109.22;4944784;28;20049;-82
2023/06/30 00:46:59;;;;;;;10.82;2.45;;;;;;;14.62;100.00;100106.09;4960878;28;20034;-81
2023/06/30 00:49:25;;;;;;;10.57;1.75;;;;;;;14.55;100.00;100100.66;4960768;28;20076;-84
2023/06/30 00:51:52;;;;;;;10.25;2.10;;;;;;;14.54;100.00;100104.31;4962662;28;20900;-84
2023/06/30 00:54:18;;;;;;;9.35;2.25;;;;;;;14.49;100.00;100093.41;5001537;28;20054;-81
2023/06/30 00:56:43;;;;;;;11.88;2.20;;;;;;;14.46;100.00;100091.09;4991950;28;20041;-80
2023/06/30 00:59:09;;;;;;;8.57;2.22;;;;;;;14.46;100.00;100091.91;4960339;28;20485;-80
2023/06/30 01:01:58;;;;;;;7.93;2.17;;;;;;;14.52;100.00;100085.06;4970456;28;20035;-79
2023/06/30 01:04:37;;;;;;;18.02;2.92;;;;;;;14.50;100.00;100081.75;4956940;28;20031;-79
2023/06/30 01:07:28;;;;;;;15.70;2.58;;;;;;;14.48;100.00;100084.59;4973269;28;20026;-81
2023/06/30 01:10:00;;;;;;;16.13;2.88;;;;;;;14.47;100.00;100076.78;4954039;28;20093;-80
2023/06/30 01:12:26;;;;;;;13.98;2.88;;;;;;;14.49;100.00;100072.94;4972585;28;20105;-79
2023/06/30 01:14:53;;;;;;;19.13;4.00;;;;;;;14.49;100.00;100072.13;4954232;28;20043;-80
2023/06/30 01:17:21;;;;;;;15.85;2.92;;;;;;;14.47;100.00;100067.00;4999129;28;20030;-79
2023/06/30 01:19:50;;;;;;;18.52;3.22;;;;;;;14.46;100.00;100064.50;4978246;28;20064;-80
2023/06/30 01:22:24;;;;;;;15.35;2.80;;;;;;;14.42;100.00;100057.88;4959073;28;20034;-80
2023/06/30 01:24:56;;;;;;;19.02;3.95;;;;;;;14.44;100.00;100062.03;4965731;28;20508;-81
2023/06/30 01:27:22;;;;;;;10.35;2.88;;;;;;;14.40;100.00;100042.09;4976538;28;20037;-79
2023/06/30 01:29:51;;;;;;;18.17;3.55;;;;;;;14.45;100.00;100044.22;4956005;28;20038;-80
2023/06/30 01:32:17;;;;;;;15.55;3.05;;;;;;;14.45;100.00;100037.09;4973326;28;20054;-79
2023/06/30 01:34:46;;;;;;;21.50;3.72;;;;;;;14.49;100.00;100043.69;4959992;28;20041;-80
2023/06/30 01:37:14;;;;;;;13.02;2.75;;;;;;;14.48;100.00;100036.72;4962881;28;20042;-79
2023/06/30 01:39:42;;;;;;;15.32;3.28;;;;;;;14.48;100.00;100035.88;4965902;28;20094;-80
2023/06/30 01:42:09;;;;;;;18.27;3.63;;;;;;;14.42;100.00;100029.47;4981100;28;20065;-80
2023/06/30 01:44:36;;;;;;;13.30;3.95;;;;;;;14.45;100.00;100025.63;4949530;28;20037;-80
2023/06/30 01:47:02;;;;;;;16.48;3.40;;;;;;;14.39;100.00;100020.03;4963467;28;20037;-80
2023/06/30 01:49:28;;;;;;;16.60;2.75;;;;;;;14.33;100.00;100014.59;4959521;28;20032;-79
2023/06/30 01:51:54;;;;;;;10.93;2.20;;;;;;;14.27;100.00;100005.50;4957045;28;20054;-80
2023/06/30 01:54:20;;;;;;;9.60;2.95;;;;;;;14.25;100.00;100007.53;4949007;28;20055;-80
2023/06/30 01:56:48;;;;;;;14.48;3.35;;;;;;;14.19;100.00;100001.06;4962595;28;20097;-79
2023/06/30 01:59:14;;;;;;;12.70;2.45;;;;;;;14.17;100.00;99994.31;4965695;28;20069;-80
2023/06/30 02:01:40;;;;;;;8.50;2.10;;;;;;;14.18;100.00;99996.78;4974437;28;20034;-80
2023/06/30 02:04:06;;;;;;;9.43;2.00;;;;;;;14.17;100.00;99994.31;4942784;28;20042;-81
2023/06/30 02:06:32;;;;;;;10.60;2.00;;;;;;;14.20;100.00;99985.97;4981270;28;20454;-80
2023/06/30 02:08:58;;;;;;;8.88;2.10;;;;;;;14.19;100.00;99987.78;4974064;28;20037;-80
2023/06/30 02:11:24;;;;;;;10.60;2.38;;;;;;;14.21;100.00;99977.81;4965729;28;20699;-80
2023/06/30 02:13:50;;;;;;;10.80;2.40;;;;;;;14.26;100.00;99977.28;4981589;28;20094;-80
2023/06/30 02:16:15;;;;;;;8.57;2.20;;;;;;;14.28;100.00;99972.59;4973886;28;20874;-82
2023/06/30 02:18:41;;;;;;;15.50;2.53;;;;;;;14.27;100.00;99973.59;4963664;28;20026;-80
2023/06/30 02:21:07;;;;;;;9.88;2.38;;;;;;;14.27;100.00;99982.41;4966367;28;20084;-80
2023/06/30 02:23:33;;;;;;;11.55;3.15;;;;;;;14.27;100.00;99966.47;4989750;28;20153;-80
2023/06/30 02:25:59;;;;;;;10.82;2.60;;;;;;;14.30;100.00;99973.22;4973058;28;20056;-80
2023/06/30 02:28:25;;;;;;;13.50;2.30;;;;;;;14.30;100.00;99959.94;4958081;28;20045;-80
2023/06/30 02:30:55;;;;;;;7.93;2.50;;;;;;;14.29;100.00;99957.47;4956631;28;20045;-80
2023/06/30 02:33:21;;;;;;;12.15;2.33;;;;;;;14.26;100.00;99958.66;4976753;28;20050;-81
2023/06/30 02:35:47;;;;;;;10.75;2.35;;;;;;;14.22;100.00;99955.53;4954774;28;20405;-80
2023/06/30 02:38:13;;;;;;;8.80;2.20;;;;;;;14.19;100.00;99950.56;4966203;28;20037;-81
2023/06/30 02:40:39;;;;;;;11.88;2.38;;;;;;;14.15;100.00;99943.97;4942261;28;20500;-80
2023/06/30 02:43:05;;;;;;;8.68;1.98;;;;;;;14.15;100.00;99938.66;4975056;28;20046;-80
2023/06/30 02:45:31;;;;;;;6.22;1.77;;;;;;;14.15;100.00;99936.00;5000634;28;20089;-80
2023/06/30 02:47:57;;;;;;;11.82;2.80;;;;;;;14.13;100.00;99933.53;4943737;28;20042;-81
2023/06/30 02:50:31;;;;;;;4.65;1.63;;;;;;;14.14;100.00;99934.38;4967738;28;20042;-81
2023/06/30 02:52:59;;;;;;;7.68;2.13;;;;;;;14.07;100.00;99931.59;4940229;28;20100;-80
2023/06/30 02:55:25;;;;;;;7.30;1.45;;;;;;;14.07;100.00;99931.59;4973566;28;20042;-81
2023/06/30 02:57:51;;;;;;;4.88;1.45;;;;;;;14.06;100.00;99935.28;4954452;28;20042;-80
2023/06/30 03:00:19;;;;;;;8.05;1.63;;;;;;;14.05;100.00;99933.59;4948732;28;20509;-80
2023/06/30 03:02:45;;;;;;;8.40;1.58;;;;;;;14.04;100.00;99928.47;4945674;28;20089;-80
2023/06/30 03:05:13;;;;;;;6.97;1.65;;;;;;;14.01;100.00;99919.84;4950367;28;20485;-81
2023/06/30 03:07:39;;;;;;;3.05;1.02;;;;;;;13.97;100.00;99921.22;4954157;28;20089;-81
2023/06/30 03:10:06;;;;;;;4.35;1.10;;;;;;;13.99;100.00;99927.19;4941531;28;20049;-80
2023/06/30 03:12:32;;;;;;;5.18;1.10;;;;;;;14.01;100.00;99927.81;4958551;28;20038;-80
2023/06/30 03:14:57;;;;;;;7.63;0.98;;;;;;;13.98;100.00;99925.50;4941504;28;20121;-81
2023/06/30 03:17:23;;;;;;;5.32;1.30;;;;;;;13.98;100.00;99919.41;4957112;28;20030;-81
2023/06/30 03:19:49;;;;;;;4.60;1.17;;;;;;;13.94;100.00;99907.47;4962780;28;20049;-81
2023/06/30 03:22:15;;;;;;;5.82;1.08;;;;;;;13.92;100.00;99901.53;4964639;28;20045;-81
2023/06/30 03:24:41;;;;;;;3.58;0.88;;;;;;;13.89;100.00;99911.50;4929850;28;20038;-80
2023/06/30 03:27:07;;;;;;;4.15;0.90;;;;;;;13.89;100.00;99914.16;4966669;28;20477;-80
2023/06/30 03:29:33;;;;;;;4.78;1.00;;;;;;;13.87;100.00;99910.84;4964445;28;20207;-81
2023/06/30 03:32:00;;;;;;;5.15;1.08;;;;;;;13.90;100.00;99907.00;4943281;28;20080;-80
2023/06/30 03:34:26;;;;;;;4.38;1.10;;;;;;;13.93;100.00;99911.13;4957994;28;20417;-80
2023/06/30 03:36:52;;;;;;;2.25;0.75;;;;;;;13.90;100.00;99896.38;4955255;28;20035;-81
2023/06/30 03:39:19;;;;;;;1.95;0.60;;;;;;;13.98;100.00;99906.13;4939021;28;20066;-81
2023/06/30 03:41:46;;;;;;;2.70;0.75;;;;;;;13.95;100.00;99899.31;4941530;28;20038;-81
2023/06/30 03:44:13;;;;;;;2.47;0.82;;;;;;;13.94;100.00;99896.84;4957474;28;20042;-81
2023/06/30 03:46:40;;;;;;;2.13;0.47;;;;;;;13.94;100.00;99883.53;4961534;28;20034;-81
2023/06/30 03:49:06;;;;;;;1.55;0.60;;;;;;;13.89;100.00;99882.25;4975755;28;20042;-80
2023/06/30 03:51:32;;;;;;;4.82;0.93;;;;;;;13.88;100.00;99877.13;5006824;28;20040;-80
2023/06/30 03:53:58;;;;;;;0.98;0.38;;;;;;;13.87;100.00;99876.31;4979355;28;20047;-80
2023/06/30 03:56:23;;;;;;;1.38;0.70;;;;;;;13.89;100.00;99878.78;4950996;28;20027;-81
2023/06/30 03:58:49;;;;;;;2.15;0.50;;;;;;;13.88;100.00;99872.66;4938686;28;20419;-80
2023/06/30 04:01:15;;;;;;;4.32;0.70;;;;;;;13.89;100.00;99868.16;4925046;28;20823;-81
2023/06/30 04:03:41;;;;;;;2.47;0.45;;;;;;;13.91;100.00;99873.28;4939069;28;20436;-80
2023/06/30 04:06:07;;;;;;;2.13;0.60;;;;;;;13.93;100.00;99868.63;4948390;28;20062;-80
2023/06/30 04:08:33;;;;;;;1.52;0.60;;;;;;;13.94;100.00;99872.91;4961557;28;20489;-82
2023/06/30 04:10:59;;;;;;;1.27;0.32;;;;;;;13.96;100.00;99869.09;4939578;29;20509;-81
2023/06/30 04:13:24;;;;;;;1.88;0.63;;;;;;;13.95;100.00;99871.94;4968304;28;20110;-81
2023/06/30 04:15:50;;;;;;;1.85;0.40;;;;;;;13.92;100.00;99862.47;4923645;29;20031;-80
2023/06/30 04:18:16;;;;;;;2.38;0.65;;;;;;;13.90;100.00;99859.19;4954853;28;20031;-81
2023/06/30 04:20:42;;;;;;;3.65;0.70;;;;;;;13.88;100.00;99866.50;4952152;28;20038;-81
2023/06/30 04:23:08;;;;;;;2.25;0.70;;;;;;;13.89;100.00;99861.00;4960777;28;20034;-80
2023/06/30 04:25:33;;;;;;;1.88;0.88;;;;;;;13.90;100.00;99861.84;4955161;28;20406;-80
2023/06/30 04:27:59;;;;;;;2.38;0.40;;;;;;;13.93;100.00;99866.81;4952369;28;20050;-80
2023/06/30 04:30:25;;;;;;;2.53;0.60;;;;;;;13.93;100.00;99860.66;4946293;28;20034;-80
2023/06/30 04:32:51;;;;;;;3.17;0.52;;;;;;;13.91;100.00;99847.56;4970947;28;20046;-80
2023/06/30 04:35:17;;;;;;;1.25;0.40;;;;;;;13.94;100.00;99854.31;4949552;28;20075;-81
2023/06/30 04:37:44;;;;;;;3.10;0.50;;;;;;;13.98;100.00;99852.97;4941624;28;20378;-81
2023/06/30 04:40:09;;;;;;;1.67;0.30;;;;;;;13.97;100.00;99846.81;4939838;28;20046;-80
2023/06/30 04:42:36;;;;;;;0.52;0.47;;;;;;;13.96;100.00;99839.88;4953334;28;20125;-81
2023/06/30 04:45:05;;;;;;;2.47;0.40;;;;;;;13.94;100.00;99839.22;4953597;28;20047;-81
2023/06/30 04:47:31;;;;;;;0.20;0.20;;;;;;;13.94;100.00;99841.88;4951720;28;20038;-80
2023/06/30 04:49:56;;;;;;;1.05;0.28;;;;;;;13.94;100.00;99843.69;4950414;28;20516;-81
2023/06/30 04:52:22;;;;;;;0.52;0.30;;;;;;;13.94;100.00;99839.22;4943472;28;20058;-80
2023/06/30 04:54:48;;;;;;;2.47;0.30;;;;;;;13.95;100.00;99832.09;4947949;28;20047;-80
2023/06/30 04:57:14;;;;;;;1.27;0.30;;;;;;;13.97;100.00;99828.22;4955155;28;20054;-81
2023/06/30 04:59:40;;;;;;;3.22;0.22;;;;;;;13.98;100.00;99823.75;4974724;28;20153;-81
2023/06/30 05:02:06;;;;;;;0.57;0.20;;;;;;;13.97;100.00;99830.88;4959719;28;20097;-80
2023/06/30 05:04:32;;;;;;;0.77;0.30;;;;;;;13.94;100.00;99820.63;4960250;28;20420;-80
2023/06/30 05:06:58;;;;;;;1.60;0.40;;;;;;;13.95;100.00;99816.94;4962148;28;20038;-82
2023/06/30 05:09:24;;;;;;;0.85;0.20;;;;;;;13.95;100.00;99816.94;4957050;28;20035;-81
2023/06/30 05:11:50;;;;;;;1.55;0.38;;;;;;;13.96;100.00;99817.78;4986846;28;20042;-81
2023/06/30 05:14:16;;;;;;;0.73;0.25;;;;;;;13.95;100.00;99816.13;4965507;28;20034;-80
2023/06/30 05:16:42;;;;;;;2.22;0.70;;;;;;;13.99;100.00;99818.25;4973735;28;20042;-81
2023/06/30 05:19:08;;;;;;;2.25;0.30;;;;;;;14.03;100.00;99818.69;4957187;28;20217;-81
2023/06/30 05:21:34;;;;;;;4.07;0.35;;;;;;;14.05;100.00;99814.03;4973836;28;20064;-81
2023/06/30 05:24:00;;;;;;;0.93;0.28;;;;;;;14.08;100.00;99812.84;4956857;28;20493;-81
2023/06/30 05:26:26;;;;;;;0.10;0.10;;;;;;;14.13;100.00;99823.72;4955342;28;20089;-81
2023/06/30 05:28:51;;;;;;;1.58;0.20;;;;;;;14.10;100.00;99806.34;4959304;28;20042;-81
2023/06/30 05:31:17;;;;;;;1.73;0.22;;;;;;;14.14;100.00;99812.91;4963471;28;20039;-81
2023/06/30 05:33:43;;;;;;;1.33;0.20;;;;;;;14.17;100.00;99813.56;4956397;28;20035;-81
2023/06/30 05:36:09;;;;;;;3.20;0.30;;;;;;;14.16;100.00;99815.41;4968330;28;20042;-81
2023/06/30 05:38:35;;;;;;;0.40;0.20;;;;;;;14.20;100.00;99815.88;4956537;28;20038;-80
2023/06/30 05:41:00;;;;;;;1.45;0.20;;;;;;;14.24;100.00;99814.47;4982205;28;20081;-81
2023/06/30 05:43:26;;;;;;;4.95;0.30;;;;;;;14.25;100.00;99803.66;4986067;28;20034;-81
2023/06/30 05:45:52;;;;;;;1.08;0.20;;;;;;;14.26;100.00;99801.84;4958887;28;20121;-80
2023/06/30 05:48:19;;;;;;;1.33;0.40;;;;;;;14.29;100.00;99801.47;4975418;28;20038;-81
2023/06/30 05:50:45;;;;;;;5.95;0.13;;;;;;;14.26;100.00;99802.66;4976964;28;20050;-81
2023/06/30 05:53:11;;;;;;;0.13;0.10;;;;;;;14.31;100.00;99796.78;4954753;28;20155;-81
2023/06/30 05:55:37;;;;;;;0.20;0.10;;;;;;;14.38;100.00;99796.88;4942549;28;20035;-80
2023/06/30 05:58:03;;;;;;;2.20;0.20;;;;;;;14.40;100.00;99794.84;4923583;28;20041;-81
2023/06/30 06:00:29;;;;;;;1.70;0.30;;;;;;;14.41;100.00;99787.69;4958505;28;20035;-80
2023/06/30 06:02:55;;;;;;;1.55;0.20;;;;;;;14.44;100.00;99790.00;4955192;28;20154;-80
2023/06/30 06:05:21;;;;;;;0.90;0.10;;;;;;;14.47;100.00;99790.44;4964858;28;20030;-80
2023/06/30 06:07:50;;;;;;;1.25;0.30;;;;;;;14.48;100.00;99789.44;4939747;28;20026;-81
2023/06/30 06:10:16;;;;;;;0.68;0.10;;;;;;;14.46;100.00;99787.97;4964516;28;21133;-81
2023/06/30 06:12:42;;;;;;;2.00;0.10;;;;;;;14.48;100.00;99791.25;4971105;28;20054;-81
2023/06/30 06:15:09;;;;;;;1.10;0.10;;;;;;;14.51;100.00;99788.22;4948952;28;20066;-81
2023/06/30 06:17:34;;;;;;;0.40;0.10;;;;;;;14.53;100.00;99783.56;4941773;28;20146;-81
2023/06/30 06:20:01;;;;;;;1.05;0.10;;;;;;;14.57;100.00;99787.47;4967107;28;20039;-82
2023/06/30 06:22:27;;;;;;;3.30;0.22;;;;;;;14.61;100.00;99782.63;4939618;28;20047;-82
2023/06/30 06:24:52;;;;;;;3.75;0.22;;;;;;;14.62;100.00;99782.44;4966551;28;20552;-80
2023/06/30 06:27:18;;;;;;;1.40;0.10;;;;;;;14.61;100.00;99778.13;4955189;28;20041;-80
2023/06/30 06:29:44;;;;;;;1.55;0.10;;;;;;;14.66;100.00;99780.22;4955636;28;20041;-81
2023/06/30 06:32:10;;;;;;;1.65;0.10;;;;;;;14.68;100.00;99780.88;4963956;28;20039;-80
2023/06/30 06:34:36;;;;;;;0.65;0.20;;;;;;;14.67;100.00;99779.19;4952121;28;20413;-80
2023/06/30 06:37:01;;;;;;;0.30;0.03;;;;;;;14.68;100.00;99780.88;4966971;28;20163;-80
2023/06/30 06:39:27;;;;;;;0.10;0.00;;;;;;;14.68;100.00;99786.19;4972412;28;20504;-80
2023/06/30 06:41:53;;;;;;;0.68;0.08;;;;;;;14.69;100.00;99792.31;4954665;28;20069;-80
2023/06/30 06:44:21;;;;;;;0.15;0.10;;;;;;;14.71;100.00;99784.97;4942692;28;20038;-81
2023/06/30 06:46:47;;;;;;;4.57;0.08;;;;;;;14.71;100.00;99784.97;4923524;28;20030;-81
2023/06/30 06:49:12;;;;;;;0.00;0.00;;;;;;;14.73;100.00;99789.09;4954201;28;20027;-81
2023/06/30 06:51:38;;;;;;;2.22;0.10;;;;;;;14.74;100.00;99784.59;4923504;28;20042;-81
2023/06/30 06:54:04;;;;;;;1.35;0.10;;;;;;;14.76;100.00;99782.59;4930378;28;20099;-81
2023/06/30 06:56:30;;;;;;;0.50;0.00;;;;;;;14.74;100.00;99789.91;4970135;28;20046;-81
2023/06/30 06:58:56;;;;;;;1.58;0.10;;;;;;;14.74;100.00;99785.44;4958956;28;20035;-81
2023/06/30 07:01:22;;;;;;;1.85;0.10;;;;;;;14.76;100.00;99794.03;4955844;28;20045;-81
2023/06/30 07:03:47;;;;;;;0.00;0.00;;;;;;;14.78;100.00;99799.16;4961680;28;20504;-81
2023/06/30 07:06:13;;;;;;;0.60;0.10;;;;;;;14.79;100.00;99800.84;4942969;28;20089;-81
2023/06/30 07:08:39;;;;;;;0.88;0.10;;;;;;;14.81;100.00;99792.69;4955776;28;20456;-81
2023/06/30 07:11:08;;;;;;;0.73;0.13;;;;;;;14.84;100.00;99798.44;4981022;28;20053;-82
2023/06/30 07:13:34;;;;;;;0.15;0.00;;;;;;;14.84;100.00;99798.44;4942867;28;20045;-81
2023/06/30 07:16:00;;;;;;;2.47;0.10;;;;;;;14.83;100.00;99799.47;4948557;28;20478;-81
2023/06/30 07:18:26;;;;;;;0.50;0.10;;;;;;;14.83;100.00;99787.97;4971666;28;20552;-81
2023/06/30 07:20:53;;;;;;;2.60;0.10;;;;;;;14.87;100.00;99791.94;4940814;28;20090;-80
2023/06/30 07:23:19;;;;;;;1.92;0.10;;;;;;;14.87;100.00;99790.06;4947759;28;20030;-80
2023/06/30 07:25:45;;;;;;;0.65;0.00;;;;;;;14.90;100.00;99788.06;4958019;28;20034;-80
2023/06/30 07:28:12;;;;;;;0.10;0.00;;;;;;;14.97;100.00;99788.97;4958447;28;20041;-80
2023/06/30 07:30:40;;;;;;;2.20;0.10;;;;;;;15.02;100.00;99783.88;4946891;28;20053;-81
2023/06/30 07:33:06;;;;;;;0.32;0.10;;;;;;;15.04;100.00;99789.00;4958038;28;20065;-80
2023/06/30 07:35:32;;;;;;;1.35;0.10;;;;;;;15.11;100.00;99798.69;4969964;28;20035;-80
2023/06/30 07:37:58;;;;;;;1.70;0.08;;;;;;;15.18;100.00;99798.78;4986049;28;20092;-81
2023/06/30 07:40:24;;;;;;;0.80;0.05;;;;;;;15.23;100.00;99782.22;4986826;28;20042;-80
2023/06/30 07:42:50;;;;;;;0.32;0.00;;;;;;;15.24;100.00;99783.88;4958953;28;20066;-80
2023/06/30 07:45:17;;;;;;;1.65;0.10;;;;;;;15.25;100.00;99778.38;4969837;28;20096;-80
2023/06/30 07:47:45;;;;;;;0.98;0.10;;;;;;;15.32;100.00;99773.09;4963930;28;20212;-80
2023/06/30 07:50:12;;;;;;;0.20;0.00;;;;;;;15.34;100.00;99779.03;4972192;28;20133;-80
2023/06/30 07:52:43;;;;;;;0.00;0.00;;;;;;;15.36;100.00;99776.19;4974746;28;20038;-80
2023/06/30 07:55:15;;;;;;;2.22;0.03;;;;;;;15.41;100.00;99772.94;4950105;28;20478;-80
2023/06/30 07:57:43;;;;;;;0.10;0.00;;;;;;;15.43;100.00;99771.72;4943277;28;20121;-80
2023/06/30 08:00:15;;;;;;;0.00;0.00;;;;;;;15.50;100.00;99774.44;4938443;28;20636;-81
2023/06/30 08:02:42;;;;;;;0.25;0.00;;;;;;;15.51;100.00;99768.13;4938254;29;20035;-80
2023/06/30 08:05:08;;;;;;;0.15;0.00;;;;;;;15.52;100.00;99767.09;4936451;28;20374;-80
2023/06/30 08:07:34;;;;;;;0.10;0.05;;;;;;;15.53;100.00;99759.94;4959348;28;20049;-80
2023/06/30 08:10:00;;;;;;;0.85;0.00;;;;;;;15.57;100.00;99769.19;4957390;28;20408;-80
2023/06/30 08:12:25;;;;;;;1.45;0.00;;;;;;;15.62;100.00;99772.91;4938591;29;20046;-80
2023/06/30 08:14:52;;;;;;;1.35;0.10;;;;;;;15.63;100.00;99763.91;4925598;28;20485;-80
2023/06/30 08:17:18;;;;;;;0.00;0.00;;;;;;;15.63;100.00;99761.25;4940616;28;20571;-82
2023/06/30 08:19:44;;;;;;;0.30;0.00;;;;;;;15.61;100.00;99757.09;4939431;28;20043;-80
2023/06/30 08:22:13;;;;;;;0.25;0.00;;;;;;;15.57;100.00;99751.38;4948511;28;20088;-80
2023/06/30 08:24:41;;;;;;;0.00;0.00;;;;;;;15.59;100.00;99759.16;4944241;28;20047;-80
2023/06/30 08:27:07;;;;;;;0.10;0.00;;;;;;;15.53;100.00;99752.75;4949111;28;20509;-80
2023/06/30 08:29:33;;;;;;;0.65;0.00;;;;;;;15.52;100.00;99751.13;4926609;28;20441;-80
2023/06/30 08:31:59;;;;;;;0.45;0.10;;;;;;;15.49;100.00;99755.00;4956504;28;20114;-81
2023/06/30 08:34:26;;;;;;;0.20;0.00;;;;;;;15.50;100.00;99748.66;4941104;28;20031;-81
2023/06/30 08:36:55;;;;;;;0.57;0.08;;;;;;;15.57;100.00;99740.72;4972953;28;20393;-81
2023/06/30 08:39:23;;;;;;;4.70;0.13;;;;;;;15.63;100.00;99741.75;4954607;28;20149;-79
2023/06/30 08:41:52;;;;;;;0.08;0.00;;;;;;;15.69;100.00;99735.66;4967660;28;20201;-81
2023/06/30 08:44:23;;;;;;;0.00;0.00;;;;;;;15.69;100.00;99742.81;4984831;28;20041;-81
2023/06/30 08:46:53;;;;;;;1.40;0.17;;;;;;;15.71;100.00;99728.28;4975381;28;20485;-80
2023/06/30 08:49:22;;;;;;;0.43;0.10;;;;;;;15.71;100.00;99728.28;4927630;28;20389;-81
2023/06/30 08:51:53;;;;;;;0.65;0.10;;;;;;;15.72;100.00;99735.25;4925116;28;20039;-79
2023/06/30 08:54:20;;;;;;;0.57;0.10;;;;;;;15.75;100.00;99726.06;4966307;28;20047;-80
2023/06/30 08:56:46;;;;;;;2.00;0.10;;;;;;;15.79;100.00;99731.81;4997071;28;20031;-81
2023/06/30 08:59:12;;;;;;;0.60;0.15;;;;;;;15.74;100.00;99722.56;4984009;28;20042;-82
2023/06/30 09:01:38;;;;;;;0.52;0.10;;;;;;;15.79;100.00;99716.66;4940557;28;20042;-81
2023/06/30 09:04:05;;;;;;;0.38;0.10;;;;;;;15.86;100.00;99722.81;4964145;28;20375;-82
2023/06/30 09:06:37;;;;;;;0.20;0.10;;;;;;;15.95;100.00;99720.00;4972827;28;20046;-82
2023/06/30 09:09:09;;;;;;;0.20;0.10;;;;;;;16.01;100.00;99718.44;4956585;28;20066;-82
2023/06/30 09:11:36;;;;;;;0.75;0.15;;;;;;;15.94;100.00;99726.38;4969310;28;20039;-82
2023/06/30 09:14:04;;;;;;;0.20;0.00;;;;;;;15.96;100.00;99708.31;4981595;28;20165;-81
2023/06/30 09:16:33;;;;;;;0.77;0.10;;;;;;;16.01;100.00;99716.56;4953155;28;20147;-80
2023/06/30 09:18:59;;;;;;;0.73;0.10;;;;;;;16.01;100.00;99713.09;4968846;28;20034;-81
2023/06/30 09:21:25;;;;;;;0.10;0.00;;;;;;;16.08;100.00;99711.28;4994588;28;20042;-80
2023/06/30 09:23:51;;;;;;;0.20;0.00;;;;;;;16.18;100.00;99708.25;4988113;28;20069;-80
2023/06/30 09:26:18;;;;;;;0.65;0.13;;;;;;;16.26;100.00;99709.91;4975543;28;20425;-81
2023/06/30 09:28:45;;;;;;;0.82;0.10;;;;;;;16.27;100.00;99707.03;4956184;28;20042;-82
2023/06/30 09:31:12;;;;;;;0.10;0.10;;;;;;;16.23;100.00;99714.63;4939927;28;20476;-81
2023/06/30 09:33:42;;;;;;;0.70;0.20;;;;;;;16.23;100.00;99711.94;4975199;28;20121;-80
2023/06/30 09:36:08;;;;;;;0.77;0.17;;;;;;;16.21;100.00;99707.84;4960387;28;20031;-81
2023/06/30 09:38:35;;;;;;;0.32;0.20;;;;;;;16.18;100.00;99703.72;4971260;28;20041;-81
2023/06/30 09:41:04;;;;;;;0.32;0.10;;;;;;;16.22;100.00;99715.66;4939733;28;20126;-82
2023/06/30 09:43:31;;;;;;;0.20;0.10;;;;;;;16.30;100.00;99711.97;4955730;28;20049;-81
2023/06/30 09:45:59;;;;;;;0.10;0.00;;;;;;;16.28;100.00;99707.84;4958818;28;20118;-82
2023/06/30 09:48:29;;;;;;;3.40;0.20;;;;;;;16.28;100.00;99703.34;4971813;28;20035;-82
2023/06/30 09:50:56;;;;;;;0.82;0.10;;;;;;;16.35;100.00;99700.69;4970399;28;20039;-82
2023/06/30 09:53:22;;;;;;;0.80;0.08;;;;;;;16.40;100.00;99698.25;4903101;28;20062;-82
2023/06/30 09:55:49;;;;;;;0.90;0.10;;;;;;;16.45;100.00;99698.47;4973486;28;20031;-82
2023/06/30 09:58:20;;;;;;;2.65;0.40;;;;;;;16.55;100.00;99689.25;4960593;28;20059;-82
2023/06/30 10:00:47;;;;;;;0.30;0.08;;;;;;;16.57;100.00;99680.03;4971065;28;20045;-82
2023/06/30 10:03:16;;;;;;;0.10;0.10;;;;;;;16.62;100.00;99674.09;4968462;28;20105;-82
2023/06/30 10:05:44;;;;;;;1.00;0.20;;;;;;;16.69;100.00;99672.22;4958241;28;20043;-81
2023/06/30 10:08:12;;;;;;;2.25;0.20;;;;;;;16.71;100.00;99675.53;4987301;28;20070;-83
2023/06/30 10:10:41;;;;;;;0.10;0.10;;;;;;;16.73;100.00;99665.47;4972223;28;20045;-82
2023/06/30 10:13:07;;;;;;;1.45;0.20;;;;;;;16.80;100.00;99670.00;4954284;28;20043;-83
2023/06/30 10:15:35;;;;;;;3.10;0.10;;;;;;;16.91;100.00;99657.88;4980739;28;20031;-81
2023/06/30 10:18:02;;;;;;;0.40;0.10;;;;;;;16.95;100.00;99654.59;4967905;28;20058;-79
2023/06/30 10:20:29;;;;;;;0.20;0.00;;;;;;;17.04;100.00;99659.72;4952732;28;20112;-79
2023/06/30 10:22:56;;;;;;;0.25;0.00;;;;;;;17.14;100.00;99646.78;4970688;28;20121;-80
2023/06/30 10:25:25;;;;;;;0.65;0.20;;;;;;;17.06;100.00;99652.31;4940404;28;20034;-82
2023/06/30 10:27:51;;;;;;;0.00;0.00;;;;;;;17.06;100.00;99657.66;4962837;28;20042;-81
2023/06/30 10:30:17;;;;;;;0.40;0.10;;;;;;;17.01;100.00;99646.78;4956125;28;20045;-81
2023/06/30 10:32:43;;;;;;;1.17;0.00;;;;;;;16.94;100.00;99655.63;4962735;28;20039;-80
2023/06/30 10:35:13;;;;;;;0.52;0.10;;;;;;;16.91;100.00;99650.72;4955846;28;20433;-79
2023/06/30 10:37:39;;;;;;;0.35;0.00;;;;;;;16.95;100.00;99651.09;4986841;28;20100;-83
2023/06/30 10:40:07;;;;;;;0.57;0.13;;;;;;;16.98;100.00;99642.66;4937170;29;20039;-80
2023/06/30 10:42:36;;;;;;;4.55;1.33;;;;;;;16.98;100.00;99648.84;4965552;28;20125;-82
2023/06/30 10:45:03;;;;;;;0.40;0.10;;;;;;;16.98;100.00;99653.34;4953198;28;20080;-81
2023/06/30 10:47:29;;;;;;;0.08;0.00;;;;;;;16.99;100.00;99655.00;4952049;28;20063;-83
2023/06/30 10:49:56;;;;;;;1.10;0.10;;;;;;;16.99;100.00;99655.81;4970910;28;20042;-81
2023/06/30 10:52:27;;;;;;;1.30;0.52;;;;;;;16.97;100.00;99649.03;4939822;28;20134;-82
2023/06/30 10:54:53;;;;;;;0.28;0.10;;;;;;;16.92;100.00;99652.34;4968638;28;20062;-83
2023/06/30 10:57:21;;;;;;;0.10;0.10;;;;;;;16.91;100.00;99656.03;4946345;28;20035;-84
2023/06/30 11:00:01;;;;;;;0.32;0.10;;;;;;;16.91;100.00;99653.38;4951071;28;20031;-83
2023/06/30 11:02:31;;;;;;;0.10;0.10;;;;;;;16.88;100.00;99652.94;4950829;28;20031;-82
2023/06/30 11:05:17;;;;;;;0.38;0.05;;;;;;;16.89;100.00;99642.06;4974984;28;20088;-83
2023/06/30 11:07:47;;;;;;;5.47;0.10;;;;;;;16.89;100.00;99639.41;4988620;28;20042;-82
2023/06/30 11:10:13;;;;;;;2.25;0.10;;;;;;;16.90;100.00;99641.03;4985757;28;20129;-84
2023/06/30 11:12:56;;;;;;;0.20;0.08;;;;;;;16.87;100.00;99638.78;4945467;28;20125;-84
2023/06/30 11:15:40;;;;;;;0.60;0.10;;;;;;;16.84;100.00;99641.84;4979013;28;20035;-83
2023/06/30 11:18:09;;;;;;;0.00;0.00;;;;;;;16.84;100.00;99642.69;4998537;28;20035;-84
2023/06/30 11:20:36;;;;;;;0.03;0.00;;;;;;;16.80;100.00;99645.97;4985403;28;20141;-83